Aeroporto :
LOGIN :

Iscrizione | Disclaimer

   EN    FR    IT 

 










Sommario :    VFR   VFR Marginale   IFR   IFR Intensivo   IFR Molto Intensivo
Visibilità : 
Base nubi : 
>= 8 km
>= 3000ft
5 / 8 km
1000 / 3000 ft
1500m / 5 km
500 / 1000 ft
800 / 1500m
200 / 500 ft
< 800m
< 200 ft
Simboli :   Temporali  Nebbia  Neve Forte  Precipitazioni Forti  Vento > 20 kt
SIGMETs :   Varie  Temporali  Ghiacco  Turbolenza  Onda orograficha  Ceneri Vulcaniche






- Altitudine del aeroporto : 158 ft
- Codice IATA : QAR


EHDL - Deelen Airbase

ULTIMO METAR :
  • 120025Z AUTO 22015KT 170V260 9999 -RA FEW007 BKN010 BKN013 FEW015CB 05/04 Q1000 RERA REDZ GRN

METARs OBSOLETI :
  • 112355Z AUTO 20013KT 140V250 9999 -RADZ FEW010 SCT013 OVC016 05/04 Q1000 GRN
  • 112325Z AUTO 19011KT 150V240 9999 FEW051 05/04 Q1000 BLU
  • 112255Z AUTO 20013KT 130V250 9999 FEW011 SCT044 BKN074 05/04 Q1000 BLU
  • 112225Z AUTO 19009KT 140V240 9999 SCT016 SCT031 BKN120 05/04 Q1000 WHT
  • 112155Z AUTO 21007KT 170V260 9999 FEW015CB OVC030 05/04 Q1000 BLU

Previsioni scadute.



MetMap, La meteo Aeronautica in un colpo d'occhio ! - Copyright ORBIFLY Dicembre 2007 - Disclaimer

ORBIFLY MET'MAP TEAM :

Programmazione e sviluppo : Alexandra Zaïnal
Concezione e sviluppo : Baudouin d'Aumeries
Co-Programmazione e sviluppo : Marc-Olivier Méhu
Supporto tecnico e logistico : Manuel Goepfert
Aiuto per la traduzione : Arnaldo La Scala

Contatto : metmap@orbifly.com




FONTI E CREDITI :

   NOAA